sensor_id;sensor_type;location;lat;lon;timestamp;pressure;altitude;pressure_sealevel;temperature;humidity
66681;BME280;53575;51.366;12.350;2023-01-26T00:00:03;101094.44;;;0.59;97.86
66681;BME280;53575;51.366;12.350;2023-01-26T00:02:29;101102.16;;;0.59;97.76
66681;BME280;53575;51.366;12.350;2023-01-26T00:04:54;101100.28;;;0.56;98.12
66681;BME280;53575;51.366;12.350;2023-01-26T00:07:20;101091.56;;;0.53;98.09
66681;BME280;53575;51.366;12.350;2023-01-26T00:09:45;101085.31;;;0.47;98.10
66681;BME280;53575;51.366;12.350;2023-01-26T00:12:11;101083.56;;;0.46;98.24
66681;BME280;53575;51.366;12.350;2023-01-26T00:14:36;101069.19;;;0.50;98.05
66681;BME280;53575;51.366;12.350;2023-01-26T00:17:15;101068.06;;;0.45;98.77
66681;BME280;53575;51.366;12.350;2023-01-26T00:19:41;101074.06;;;0.45;99.04
66681;BME280;53575;51.366;12.350;2023-01-26T00:22:06;101064.91;;;0.51;98.41
66681;BME280;53575;51.366;12.350;2023-01-26T00:24:31;101062.03;;;0.44;97.93
66681;BME280;53575;51.366;12.350;2023-01-26T00:26:57;101068.16;;;0.46;98.29
66681;BME280;53575;51.366;12.350;2023-01-26T00:29:22;101063.06;;;0.48;99.04
66681;BME280;53575;51.366;12.350;2023-01-26T00:31:48;101058.75;;;0.29;99.19
66681;BME280;53575;51.366;12.350;2023-01-26T00:34:13;101057.72;;;0.43;99.18
66681;BME280;53575;51.366;12.350;2023-01-26T00:36:38;101060.00;;;0.37;99.48
66681;BME280;53575;51.366;12.350;2023-01-26T00:39:04;101061.69;;;0.37;99.65
66681;BME280;53575;51.366;12.350;2023-01-26T00:41:29;101060.75;;;0.35;100.00
66681;BME280;53575;51.366;12.350;2023-01-26T00:44:13;101051.56;;;0.40;100.00
66681;BME280;53575;51.366;12.350;2023-01-26T00:46:38;101058.94;;;0.52;99.26
66681;BME280;53575;51.366;12.350;2023-01-26T00:49:04;101049.69;;;0.55;98.86
66681;BME280;53575;51.366;12.350;2023-01-26T00:51:29;101064.25;;;0.37;99.90
66681;BME280;53575;51.366;12.350;2023-01-26T00:53:55;101063.44;;;0.38;99.75
66681;BME280;53575;51.366;12.350;2023-01-26T00:56:20;101068.56;;;0.38;99.94
66681;BME280;53575;51.366;12.350;2023-01-26T00:58:46;101055.41;;;0.12;100.00
66681;BME280;53575;51.366;12.350;2023-01-26T01:01:11;101054.88;;;0.19;100.00
66681;BME280;53575;51.366;12.350;2023-01-26T01:03:36;101057.75;;;0.08;100.00
66681;BME280;53575;51.366;12.350;2023-01-26T01:06:02;101062.53;;;0.00;100.00
66681;BME280;53575;51.366;12.350;2023-01-26T01:08:27;101056.47;;;-0.01;100.00
66681;BME280;53575;51.366;12.350;2023-01-26T01:11:04;101056.28;;;0.13;100.00
66681;BME280;53575;51.366;12.350;2023-01-26T01:13:29;101062.44;;;-0.02;100.00
66681;BME280;53575;51.366;12.350;2023-01-26T01:15:55;101057.38;;;0.00;100.00
66681;BME280;53575;51.366;12.350;2023-01-26T01:18:20;101047.00;;;-0.02;100.00
66681;BME280;53575;51.366;12.350;2023-01-26T01:20:45;101044.06;;;-0.09;100.00
66681;BME280;53575;51.366;12.350;2023-01-26T01:23:11;101038.22;;;-0.07;100.00
66681;BME280;53575;51.366;12.350;2023-01-26T01:25:36;101043.56;;;-0.02;100.00
66681;BME280;53575;51.366;12.350;2023-01-26T01:28:01;101043.19;;;-0.10;100.00
66681;BME280;53575;51.366;12.350;2023-01-26T01:30:27;101036.69;;;-0.03;100.00
66681;BME280;53575;51.366;12.350;2023-01-26T01:32:52;101035.25;;;0.04;100.00
66681;BME280;53575;51.366;12.350;2023-01-26T01:35:18;101037.81;;;0.04;100.00
66681;BME280;53575;51.366;12.350;2023-01-26T01:37:43;101033.34;;;-0.01;100.00
66681;BME280;53575;51.366;12.350;2023-01-26T01:40:11;101027.19;;;0.14;100.00
66681;BME280;53575;51.366;12.350;2023-01-26T01:42:36;101026.63;;;0.02;100.00
66681;BME280;53575;51.366;12.350;2023-01-26T01:48:03;101021.47;;;0.02;100.00
66681;BME280;53575;51.366;12.350;2023-01-26T01:50:33;101019.13;;;0.06;100.00
66681;BME280;53575;51.366;12.350;2023-01-26T01:53:01;101010.38;;;0.03;100.00
66681;BME280;53575;51.366;12.350;2023-01-26T01:55:27;101004.78;;;0.11;100.00
66681;BME280;53575;51.366;12.350;2023-01-26T01:57:55;101011.63;;;0.11;100.00
66681;BME280;53575;51.366;12.350;2023-01-26T02:00:23;100998.03;;;0.13;100.00
66681;BME280;53575;51.366;12.350;2023-01-26T02:02:57;101004.06;;;0.14;100.00
66681;BME280;53575;51.366;12.350;2023-01-26T02:05:55;101007.25;;;0.08;100.00
66681;BME280;53575;51.366;12.350;2023-01-26T02:08:30;100992.25;;;-0.01;100.00
66681;BME280;53575;51.366;12.350;2023-01-26T02:10:59;100995.16;;;0.25;100.00
66681;BME280;53575;51.366;12.350;2023-01-26T02:13:28;100982.44;;;0.28;100.00
66681;BME280;53575;51.366;12.350;2023-01-26T02:15:57;100988.25;;;0.24;100.00
66681;BME280;53575;51.366;12.350;2023-01-26T02:18:23;100974.75;;;0.28;100.00
66681;BME280;53575;51.366;12.350;2023-01-26T02:20:54;100974.66;;;0.27;100.00
66681;BME280;53575;51.366;12.350;2023-01-26T02:26:19;100968.53;;;0.05;100.00
66681;BME280;53575;51.366;12.350;2023-01-26T02:28:45;100968.91;;;0.13;100.00
66681;BME280;53575;51.366;12.350;2023-01-26T02:31:12;100959.97;;;0.05;100.00
66681;BME280;53575;51.366;12.350;2023-01-26T02:33:37;100957.59;;;0.09;100.00
66681;BME280;53575;51.366;12.350;2023-01-26T02:36:04;100963.03;;;-0.03;100.00
66681;BME280;53575;51.366;12.350;2023-01-26T02:38:39;100959.91;;;-0.15;100.00
66681;BME280;53575;51.366;12.350;2023-01-26T02:41:07;100955.44;;;-0.19;100.00
66681;BME280;53575;51.366;12.350;2023-01-26T02:43:34;100949.53;;;-0.16;100.00
66681;BME280;53575;51.366;12.350;2023-01-26T02:45:59;100949.03;;;-0.09;100.00
66681;BME280;53575;51.366;12.350;2023-01-26T02:48:25;100944.84;;;-0.07;100.00
66681;BME280;53575;51.366;12.350;2023-01-26T02:51:09;100941.84;;;-0.16;100.00
66681;BME280;53575;51.366;12.350;2023-01-26T02:53:35;100936.38;;;-0.05;100.00
66681;BME280;53575;51.366;12.350;2023-01-26T02:56:00;100939.41;;;-0.13;100.00
66681;BME280;53575;51.366;12.350;2023-01-26T02:58:26;100943.47;;;-0.36;100.00
66681;BME280;53575;51.366;12.350;2023-01-26T03:00:51;100938.91;;;-0.24;100.00
66681;BME280;53575;51.366;12.350;2023-01-26T03:03:25;100940.91;;;-0.18;100.00
66681;BME280;53575;51.366;12.350;2023-01-26T03:06:09;100941.09;;;-0.14;100.00
66681;BME280;53575;51.366;12.350;2023-01-26T03:08:36;100933.03;;;-0.21;100.00
66681;BME280;53575;51.366;12.350;2023-01-26T03:11:03;100936.63;;;-0.18;100.00
66681;BME280;53575;51.366;12.350;2023-01-26T03:13:28;100936.19;;;-0.27;100.00
66681;BME280;53575;51.366;12.350;2023-01-26T03:15:54;100934.78;;;-0.38;100.00
66681;BME280;53575;51.366;12.350;2023-01-26T03:18:21;100929.09;;;-0.33;100.00
66681;BME280;53575;51.366;12.350;2023-01-26T03:21:10;100932.88;;;-0.42;100.00
66681;BME280;53575;51.366;12.350;2023-01-26T03:23:55;100933.13;;;-0.38;100.00
66681;BME280;53575;51.366;12.350;2023-01-26T03:26:39;100933.63;;;-0.63;100.00
66681;BME280;53575;51.366;12.350;2023-01-26T03:29:24;100935.94;;;-0.85;100.00
66681;BME280;53575;51.366;12.350;2023-01-26T03:31:51;100929.31;;;-0.64;100.00
66681;BME280;53575;51.366;12.350;2023-01-26T03:34:17;100927.69;;;-0.80;100.00
66681;BME280;53575;51.366;12.350;2023-01-26T03:36:42;100921.19;;;-0.89;100.00
66681;BME280;53575;51.366;12.350;2023-01-26T03:39:08;100919.94;;;-0.98;100.00
66681;BME280;53575;51.366;12.350;2023-01-26T03:41:34;100918.94;;;-0.83;100.00
66681;BME280;53575;51.366;12.350;2023-01-26T03:44:17;100911.66;;;-0.92;100.00
66681;BME280;53575;51.366;12.350;2023-01-26T03:47:02;100903.94;;;-1.10;100.00
66681;BME280;53575;51.366;12.350;2023-01-26T03:49:46;100903.19;;;-0.91;100.00
66681;BME280;53575;51.366;12.350;2023-01-26T03:52:31;100908.22;;;-0.92;100.00
66681;BME280;53575;51.366;12.350;2023-01-26T03:55:16;100912.97;;;-1.00;100.00
66681;BME280;53575;51.366;12.350;2023-01-26T03:58:00;100907.00;;;-0.83;100.00
66681;BME280;53575;51.366;12.350;2023-01-26T04:00:25;100911.16;;;-0.85;100.00
66681;BME280;53575;51.366;12.350;2023-01-26T04:02:51;100921.03;;;-0.92;100.00
66681;BME280;53575;51.366;12.350;2023-01-26T04:05:35;100920.59;;;-1.02;100.00
66681;BME280;53575;51.366;12.350;2023-01-26T04:08:19;100929.72;;;-0.90;100.00
66681;BME280;53575;51.366;12.350;2023-01-26T04:10:52;100924.59;;;-0.90;100.00
66681;BME280;53575;51.366;12.350;2023-01-26T04:13:19;100920.59;;;-1.02;100.00
66681;BME280;53575;51.366;12.350;2023-01-26T04:16:04;100923.22;;;-1.00;100.00
66681;BME280;53575;51.366;12.350;2023-01-26T04:18:49;100923.44;;;-0.95;100.00
66681;BME280;53575;51.366;12.350;2023-01-26T04:21:33;100919.06;;;-0.80;100.00
66681;BME280;53575;51.366;12.350;2023-01-26T04:24:02;100910.28;;;-0.85;100.00
66681;BME280;53575;51.366;12.350;2023-01-26T04:26:35;100916.72;;;-0.93;100.00
66681;BME280;53575;51.366;12.350;2023-01-26T04:29:02;100913.56;;;-0.88;100.00
66681;BME280;53575;51.366;12.350;2023-01-26T04:31:28;100911.09;;;-0.86;100.00
66681;BME280;53575;51.366;12.350;2023-01-26T04:33:53;100909.25;;;-0.89;100.00
66681;BME280;53575;51.366;12.350;2023-01-26T04:36:19;100910.63;;;-0.95;100.00
66681;BME280;53575;51.366;12.350;2023-01-26T04:38:44;100909.56;;;-0.83;100.00
66681;BME280;53575;51.366;12.350;2023-01-26T04:41:09;100904.88;;;-0.91;100.00
66681;BME280;53575;51.366;12.350;2023-01-26T04:43:35;100911.66;;;-0.92;100.00
66681;BME280;53575;51.366;12.350;2023-01-26T04:46:05;100909.34;;;-0.87;100.00
66681;BME280;53575;51.366;12.350;2023-01-26T04:48:33;100909.78;;;-0.78;100.00
66681;BME280;53575;51.366;12.350;2023-01-26T04:51:04;100914.19;;;-0.76;100.00
66681;BME280;53575;51.366;12.350;2023-01-26T04:53:31;100905.69;;;-0.75;100.00
66681;BME280;53575;51.366;12.350;2023-01-26T04:55:57;100910.97;;;-0.71;100.00
66681;BME280;53575;51.366;12.350;2023-01-26T04:58:23;100909.66;;;-0.63;100.00
66681;BME280;53575;51.366;12.350;2023-01-26T05:00:56;100902.31;;;-0.56;100.00
66681;BME280;53575;51.366;12.350;2023-01-26T05:03:23;100898.44;;;-0.83;100.00
66681;BME280;53575;51.366;12.350;2023-01-26T05:05:50;100903.91;;;-0.93;100.00
66681;BME280;53575;51.366;12.350;2023-01-26T05:08:16;100908.00;;;-0.97;100.00
66681;BME280;53575;51.366;12.350;2023-01-26T05:10:42;100906.31;;;-0.96;100.00
66681;BME280;53575;51.366;12.350;2023-01-26T05:13:08;100899.09;;;-0.87;100.00
66681;BME280;53575;51.366;12.350;2023-01-26T05:15:34;100895.47;;;-0.91;100.00
66681;BME280;53575;51.366;12.350;2023-01-26T05:18:00;100898.81;;;-0.76;100.00
66681;BME280;53575;51.366;12.350;2023-01-26T05:20:26;100909.44;;;-0.68;100.00
66681;BME280;53575;51.366;12.350;2023-01-26T05:22:52;100912.94;;;-0.66;100.00
66681;BME280;53575;51.366;12.350;2023-01-26T05:25:17;100917.50;;;-0.60;100.00
66681;BME280;53575;51.366;12.350;2023-01-26T05:27:43;100911.56;;;-0.59;100.00
66681;BME280;53575;51.366;12.350;2023-01-26T05:30:09;100908.63;;;-0.67;100.00
66681;BME280;53575;51.366;12.350;2023-01-26T05:32:35;100909.19;;;-0.55;100.00
66681;BME280;53575;51.366;12.350;2023-01-26T05:35:01;100903.34;;;-0.70;100.00
66681;BME280;53575;51.366;12.350;2023-01-26T05:37:27;100910.53;;;-0.45;100.00
66681;BME280;53575;51.366;12.350;2023-01-26T05:39:53;100910.25;;;-0.33;100.00
66681;BME280;53575;51.366;12.350;2023-01-26T05:42:19;100912.41;;;-0.23;100.00
66681;BME280;53575;51.366;12.350;2023-01-26T05:44:45;100912.28;;;-0.26;100.00
66681;BME280;53575;51.366;12.350;2023-01-26T05:47:10;100919.47;;;-0.19;100.00
66681;BME280;53575;51.366;12.350;2023-01-26T05:49:36;100912.97;;;-0.30;100.00
66681;BME280;53575;51.366;12.350;2023-01-26T05:52:09;100919.84;;;-0.47;100.00
66681;BME280;53575;51.366;12.350;2023-01-26T05:54:35;100917.66;;;-0.57;100.00
66681;BME280;53575;51.366;12.350;2023-01-26T05:57:01;100917.06;;;-0.52;100.00
66681;BME280;53575;51.366;12.350;2023-01-26T05:59:26;100909.19;;;-0.55;100.00
66681;BME280;53575;51.366;12.350;2023-01-26T06:01:52;100905.44;;;-0.61;100.00
66681;BME280;53575;51.366;12.350;2023-01-26T06:04:18;100912.66;;;-0.54;100.00
66681;BME280;53575;51.366;12.350;2023-01-26T06:06:43;100912.91;;;-0.50;100.00
66681;BME280;53575;51.366;12.350;2023-01-26T06:09:09;100918.75;;;-0.52;100.00
66681;BME280;53575;51.366;12.350;2023-01-26T06:11:35;100913.78;;;-0.49;100.00
66681;BME280;53575;51.366;12.350;2023-01-26T06:14:00;100909.66;;;-0.45;100.00
66681;BME280;53575;51.366;12.350;2023-01-26T06:16:26;100912.34;;;-0.42;100.00
66681;BME280;53575;51.366;12.350;2023-01-26T06:18:51;100905.25;;;-0.48;100.00
66681;BME280;53575;51.366;12.350;2023-01-26T06:21:17;100912.91;;;-0.50;100.00
66681;BME280;53575;51.366;12.350;2023-01-26T06:23:43;100918.03;;;-0.50;100.00
66681;BME280;53575;51.366;12.350;2023-01-26T06:26:08;100916.31;;;-0.67;100.00
66681;BME280;53575;51.366;12.350;2023-01-26T06:28:34;100917.00;;;-0.53;100.00
66681;BME280;53575;51.366;12.350;2023-01-26T06:31:05;100916.84;;;-0.56;100.00
66681;BME280;53575;51.366;12.350;2023-01-26T06:33:32;100910.75;;;-0.40;100.00
66681;BME280;53575;51.366;12.350;2023-01-26T06:36:06;100912.28;;;-0.44;100.00
66681;BME280;53575;51.366;12.350;2023-01-26T06:38:32;100919.94;;;-0.45;100.00
66681;BME280;53575;51.366;12.350;2023-01-26T06:40:59;100921.47;;;-0.49;100.00
66681;BME280;53575;51.366;12.350;2023-01-26T06:43:28;100924.09;;;-0.47;100.00
66681;BME280;53575;51.366;12.350;2023-01-26T06:45:55;100921.00;;;-0.58;100.00
66681;BME280;53575;51.366;12.350;2023-01-26T06:48:21;100926.25;;;-0.57;100.00
66681;BME280;53575;51.366;12.350;2023-01-26T06:50:46;100931.94;;;-0.62;100.00
66681;BME280;53575;51.366;12.350;2023-01-26T06:53:29;100922.69;;;-0.59;100.00
66681;BME280;53575;51.366;12.350;2023-01-26T06:55:57;100925.94;;;-0.45;100.00
66681;BME280;53575;51.366;12.350;2023-01-26T06:58:22;100920.72;;;-0.46;100.00
66681;BME280;53575;51.366;12.350;2023-01-26T07:00:48;100925.47;;;-0.54;100.00
66681;BME280;53575;51.366;12.350;2023-01-26T07:03:13;100926.50;;;-0.51;100.00
66681;BME280;53575;51.366;12.350;2023-01-26T07:05:39;100928.41;;;-0.46;100.00
66681;BME280;53575;51.366;12.350;2023-01-26T07:08:05;100929.31;;;-0.64;100.00
66681;BME280;53575;51.366;12.350;2023-01-26T07:10:33;100933.50;;;-0.48;100.00
66681;BME280;53575;51.366;12.350;2023-01-26T07:12:58;100930.13;;;-0.47;100.00
66681;BME280;53575;51.366;12.350;2023-01-26T07:15:24;100936.78;;;-0.51;100.00
66681;BME280;53575;51.366;12.350;2023-01-26T07:17:49;100939.72;;;-0.43;100.00
66681;BME280;53575;51.366;12.350;2023-01-26T07:20:15;100929.28;;;-0.46;100.00
66681;BME280;53575;51.366;12.350;2023-01-26T07:22:40;100931.13;;;-0.43;100.00
66681;BME280;53575;51.366;12.350;2023-01-26T07:25:06;100935.69;;;-0.38;100.00
66681;BME280;53575;51.366;12.350;2023-01-26T07:27:32;100924.75;;;-0.52;100.00
66681;BME280;53575;51.366;12.350;2023-01-26T07:29:58;100917.78;;;-0.36;99.02
66681;BME280;53575;51.366;12.350;2023-01-26T07:32:23;100910.81;;;-0.39;99.56
66681;BME280;53575;51.366;12.350;2023-01-26T07:34:48;100912.81;;;-0.33;99.78
66681;BME280;53575;51.366;12.350;2023-01-26T07:37:14;100907.53;;;-0.36;99.58
66681;BME280;53575;51.366;12.350;2023-01-26T07:39:39;100911.53;;;-0.23;100.00
66681;BME280;53575;51.366;12.350;2023-01-26T07:42:05;100908.38;;;-0.18;99.89
66681;BME280;53575;51.366;12.350;2023-01-26T07:44:30;100911.84;;;-0.35;99.41
66681;BME280;53575;51.366;12.350;2023-01-26T07:46:56;100915.72;;;-0.26;99.69
66681;BME280;53575;51.366;12.350;2023-01-26T07:49:22;100911.09;;;-0.15;98.80
66681;BME280;53575;51.366;12.350;2023-01-26T07:51:47;100909.19;;;-0.19;98.37
66681;BME280;53575;51.366;12.350;2023-01-26T07:54:13;100908.84;;;-0.27;98.40
66681;BME280;53575;51.366;12.350;2023-01-26T07:56:38;100904.81;;;-0.39;98.52
66681;BME280;53575;51.366;12.350;2023-01-26T07:59:04;100904.44;;;-0.47;99.13
66681;BME280;53575;51.366;12.350;2023-01-26T08:01:29;100901.56;;;-0.35;98.18
66681;BME280;53575;51.366;12.350;2023-01-26T08:03:55;100905.81;;;-0.36;98.01
66681;BME280;53575;51.366;12.350;2023-01-26T08:06:21;100907.56;;;-0.35;97.88
66681;BME280;53575;51.366;12.350;2023-01-26T08:08:47;100905.78;;;-0.37;97.57
66681;BME280;53575;51.366;12.350;2023-01-26T08:11:18;100902.38;;;-0.36;98.18
66681;BME280;53575;51.366;12.350;2023-01-26T08:13:46;100905.00;;;-0.35;98.90
66681;BME280;53575;51.366;12.350;2023-01-26T08:16:12;100913.84;;;-0.30;98.46
66681;BME280;53575;51.366;12.350;2023-01-26T08:18:42;100921.03;;;-0.40;99.45
66681;BME280;53575;51.366;12.350;2023-01-26T08:21:09;100919.91;;;-0.63;100.00
66681;BME280;53575;51.366;12.350;2023-01-26T08:23:34;100915.13;;;-0.74;100.00
66681;BME280;53575;51.366;12.350;2023-01-26T08:26:06;100914.25;;;-0.74;100.00
66681;BME280;53575;51.366;12.350;2023-01-26T08:28:32;100924.38;;;-0.77;100.00
66681;BME280;53575;51.366;12.350;2023-01-26T08:31:27;100928.47;;;-0.81;100.00
66681;BME280;53575;51.366;12.350;2023-01-26T08:33:52;100927.25;;;-0.71;100.00
66681;BME280;53575;51.366;12.350;2023-01-26T08:36:20;100918.72;;;-0.70;100.00
66681;BME280;53575;51.366;12.350;2023-01-26T08:38:45;100917.41;;;-0.62;100.00
66681;BME280;53575;51.366;12.350;2023-01-26T08:41:11;100928.72;;;-0.58;100.00
66681;BME280;53575;51.366;12.350;2023-01-26T08:43:37;100930.56;;;-0.56;100.00
66681;BME280;53575;51.366;12.350;2023-01-26T08:46:03;100930.06;;;-0.48;100.00
66681;BME280;53575;51.366;12.350;2023-01-26T08:48:29;100920.72;;;-0.64;100.00
66681;BME280;53575;51.366;12.350;2023-01-26T08:50:57;100921.00;;;-0.58;100.00
66681;BME280;53575;51.366;12.350;2023-01-26T08:53:24;100930.50;;;-0.57;100.00
66681;BME280;53575;51.366;12.350;2023-01-26T08:55:50;100939.72;;;-0.61;100.00
66681;BME280;53575;51.366;12.350;2023-01-26T08:58:16;100939.63;;;-0.62;100.00
66681;BME280;53575;51.366;12.350;2023-01-26T09:00:41;100942.50;;;-0.74;100.00
66681;BME280;53575;51.366;12.350;2023-01-26T09:03:07;100943.09;;;-0.62;100.00
66681;BME280;53575;51.366;12.350;2023-01-26T09:05:37;100950.88;;;-0.60;100.00
66681;BME280;53575;51.366;12.350;2023-01-26T09:08:04;100942.13;;;-0.64;100.00
66681;BME280;53575;51.366;12.350;2023-01-26T09:10:30;100935.47;;;-0.60;100.00
66681;BME280;53575;51.366;12.350;2023-01-26T09:12:57;100942.72;;;-0.52;100.00
66681;BME280;53575;51.366;12.350;2023-01-26T09:15:23;100950.44;;;-0.52;100.00
66681;BME280;53575;51.366;12.350;2023-01-26T09:17:49;100948.09;;;-0.65;99.70
66681;BME280;53575;51.366;12.350;2023-01-26T09:20:15;100945.81;;;-0.59;100.00
66681;BME280;53575;51.366;12.350;2023-01-26T09:22:41;100947.41;;;-0.43;100.00
66681;BME280;53575;51.366;12.350;2023-01-26T09:25:07;100947.13;;;-0.67;100.00
66681;BME280;53575;51.366;12.350;2023-01-26T09:27:32;100948.16;;;-0.63;99.81
66681;BME280;53575;51.366;12.350;2023-01-26T09:29:58;100954.81;;;-0.67;100.00
66681;BME280;53575;51.366;12.350;2023-01-26T09:32:24;100944.25;;;-0.55;100.00
66681;BME280;53575;51.366;12.350;2023-01-26T09:34:49;100950.78;;;-0.62;100.00
66681;BME280;53575;51.366;12.350;2023-01-26T09:37:15;100947.28;;;-0.64;100.00
66681;BME280;53575;51.366;12.350;2023-01-26T09:39:40;100946.38;;;-0.46;100.00
66681;BME280;53575;51.366;12.350;2023-01-26T09:53:19;100946.59;;;-0.78;100.00
66681;BME280;53575;51.366;12.350;2023-01-26T09:55:47;100956.94;;;-0.58;99.48
66681;BME280;53575;51.366;12.350;2023-01-26T10:00:58;100936.03;;;-0.66;98.35
66681;BME280;53575;51.366;12.350;2023-01-26T10:08:45;100926.50;;;-0.51;98.42
66681;BME280;53575;51.366;12.350;2023-01-26T10:11:32;100924.03;;;-0.49;99.06
66681;BME280;53575;51.366;12.350;2023-01-26T10:16:51;100916.75;;;-0.40;98.12
66681;BME280;53575;51.366;12.350;2023-01-26T10:19:36;100921.69;;;-0.44;97.00
66681;BME280;53575;51.366;12.350;2023-01-26T10:22:14;100921.75;;;-0.61;97.57
66681;BME280;53575;51.366;12.350;2023-01-26T10:24:46;100923.59;;;-0.40;96.65
66681;BME280;53575;51.366;12.350;2023-01-26T10:27:13;100921.44;;;-0.31;95.53
66681;BME280;53575;51.366;12.350;2023-01-26T10:29:39;100919.63;;;-0.34;96.21
66681;BME280;53575;51.366;12.350;2023-01-26T10:32:04;100916.75;;;-0.40;97.43
66681;BME280;53575;51.366;12.350;2023-01-26T10:34:31;100910.25;;;-0.33;97.42
66681;BME280;53575;51.366;12.350;2023-01-26T10:40:02;100917.69;;;-0.20;95.88
66681;BME280;53575;51.366;12.350;2023-01-26T10:42:33;100910.25;;;0.04;95.57
66681;BME280;53575;51.366;12.350;2023-01-26T10:45:01;100907.78;;;-0.12;94.55
66681;BME280;53575;51.366;12.350;2023-01-26T10:47:28;100904.69;;;-0.23;95.05
66681;BME280;53575;51.366;12.350;2023-01-26T10:50:23;100894.16;;;-0.29;95.91
66681;BME280;53575;51.366;12.350;2023-01-26T10:53:03;100897.34;;;-0.15;95.49
66681;BME280;53575;51.366;12.350;2023-01-26T10:55:32;100888.09;;;-0.12;95.44
66681;BME280;53575;51.366;12.350;2023-01-26T10:58:00;100891.34;;;-0.16;95.92
66681;BME280;53575;51.366;12.350;2023-01-26T11:00:29;100888.84;;;-0.14;96.68
66681;BME280;53575;51.366;12.350;2023-01-26T11:03:04;100891.50;;;-0.13;96.07
66681;BME280;53575;51.366;12.350;2023-01-26T11:05:31;100890.75;;;-0.10;96.73
66681;BME280;53575;51.366;12.350;2023-01-26T11:07:57;100878.50;;;-0.16;97.19
66681;BME280;53575;51.366;12.350;2023-01-26T11:10:33;100874.56;;;-0.27;98.30
66681;BME280;53575;51.366;12.350;2023-01-26T11:13:17;100874.13;;;-0.18;98.92
66681;BME280;53575;51.366;12.350;2023-01-26T11:15:49;100872.00;;;-0.08;98.35
66681;BME280;53575;51.366;12.350;2023-01-26T11:35:23;100854.59;;;-0.15;100.00
66681;BME280;53575;51.366;12.350;2023-01-26T11:40:50;100860.28;;;-0.03;100.00
66681;BME280;53575;51.366;12.350;2023-01-26T11:59:38;100842.97;;;-0.44;100.00
66681;BME280;53575;51.366;12.350;2023-01-26T12:02:31;100843.69;;;-0.46;100.00
66681;BME280;53575;51.366;12.350;2023-01-26T12:05:01;100850.34;;;-0.32;100.00
66681;BME280;53575;51.366;12.350;2023-01-26T12:07:52;100852.88;;;-0.52;100.00
66681;BME280;53575;51.366;12.350;2023-01-26T12:10:28;100843.94;;;-0.60;100.00
66681;BME280;53575;51.366;12.350;2023-01-26T12:13:21;100832.03;;;-0.58;100.00
66681;BME280;53575;51.366;12.350;2023-01-26T12:16:00;100822.75;;;-0.56;100.00
66681;BME280;53575;51.366;12.350;2023-01-26T12:18:33;100823.81;;;-0.51;100.00
66681;BME280;53575;51.366;12.350;2023-01-26T12:21:06;100820.00;;;-0.41;100.00
66681;BME280;53575;51.366;12.350;2023-01-26T12:23:43;100817.25;;;-0.63;100.00
66681;BME280;53575;51.366;12.350;2023-01-26T12:26:23;100810.44;;;-0.63;100.00
66681;BME280;53575;51.366;12.350;2023-01-26T12:29:40;100805.75;;;-0.71;100.00
66681;BME280;53575;51.366;12.350;2023-01-26T12:34:12;100806.13;;;-0.82;100.00
66681;BME280;53575;51.366;12.350;2023-01-26T12:39:28;100808.13;;;-0.76;100.00
66681;BME280;53575;51.366;12.350;2023-01-26T12:42:36;100812.13;;;-0.81;100.00
66681;BME280;53575;51.366;12.350;2023-01-26T12:45:10;100797.50;;;-0.84;100.00
66681;BME280;53575;51.366;12.350;2023-01-26T12:47:43;100802.00;;;-0.96;100.00
66681;BME280;53575;51.366;12.350;2023-01-26T12:50:37;100797.38;;;-1.03;100.00
66681;BME280;53575;51.366;12.350;2023-01-26T12:53:13;100791.03;;;-1.29;100.00
66681;BME280;53575;51.366;12.350;2023-01-26T12:56:21;100799.59;;;-1.11;100.00
66681;BME280;53575;51.366;12.350;2023-01-26T12:58:45;100798.13;;;-1.24;100.00
66681;BME280;53575;51.366;12.350;2023-01-26T13:01:15;100789.63;;;-1.05;100.00
66681;BME280;53575;51.366;12.350;2023-01-26T13:03:51;100788.88;;;-1.20;100.00
66681;BME280;53575;51.366;12.350;2023-01-26T13:06:23;100802.16;;;-1.11;100.00
66681;BME280;53575;51.366;12.350;2023-01-26T13:09:17;100797.38;;;-1.03;100.00
66681;BME280;53575;51.366;12.350;2023-01-26T13:11:55;100802.41;;;-1.06;100.00
66681;BME280;53575;51.366;12.350;2023-01-26T13:14:59;100798.72;;;-1.11;100.00
66681;BME280;53575;51.366;12.350;2023-01-26T13:19:54;100805.66;;;-1.27;100.00
66681;BME280;53575;51.366;12.350;2023-01-26T13:27:30;100810.28;;;-1.19;100.00
66681;BME280;53575;51.366;12.350;2023-01-26T13:29:56;100810.38;;;-1.18;100.00
66681;BME280;53575;51.366;12.350;2023-01-26T13:34:55;100818.41;;;-1.62;100.00
66681;BME280;53575;51.366;12.350;2023-01-26T13:37:48;100816.78;;;-1.44;100.00
66681;BME280;53575;51.366;12.350;2023-01-26T13:40:25;100817.72;;;-1.42;100.00
66681;BME280;53575;51.366;12.350;2023-01-26T13:43:31;100817.44;;;-1.64;100.00
66681;BME280;53575;51.366;12.350;2023-01-26T13:46:12;100825.66;;;-1.54;100.00
66681;BME280;53575;51.366;12.350;2023-01-26T13:48:47;100821.84;;;-1.62;100.00
66681;BME280;53575;51.366;12.350;2023-01-26T13:51:31;100816.38;;;-1.52;100.00
66681;BME280;53575;51.366;12.350;2023-01-26T13:56:33;100821.81;;;-1.45;100.00
66681;BME280;53575;51.366;12.350;2023-01-26T13:59:19;100823.50;;;-1.46;100.00
66681;BME280;53575;51.366;12.350;2023-01-26T14:01:52;100821.50;;;-1.52;100.00
66681;BME280;53575;51.366;12.350;2023-01-26T14:04:22;100815.91;;;-1.44;100.00
66681;BME280;53575;51.366;12.350;2023-01-26T14:07:01;100814.22;;;-1.26;100.00
66681;BME280;53575;51.366;12.350;2023-01-26T14:09:30;100809.75;;;-1.30;100.00
66681;BME280;53575;51.366;12.350;2023-01-26T14:12:04;100807.06;;;-1.50;100.00